sensor_id;sensor_type;location;lat;lon;timestamp;P1;durP1;ratioP1;P2;durP2;ratioP2
35993;SDS011;22066;54.274;18.578;2024-02-26T00:01:26;1.40;;;1.30;;
35993;SDS011;22066;54.274;18.578;2024-02-26T00:03:52;0.23;;;0.23;;
35993;SDS011;22066;54.274;18.578;2024-02-26T00:06:19;1.23;;;1.10;;
35993;SDS011;22066;54.274;18.578;2024-02-26T00:08:45;0.40;;;0.40;;
35993;SDS011;22066;54.274;18.578;2024-02-26T00:11:11;1.53;;;1.43;;
35993;SDS011;22066;54.274;18.578;2024-02-26T00:13:37;0.60;;;0.60;;
35993;SDS011;22066;54.274;18.578;2024-02-26T00:16:03;0.00;;;0.00;;
35993;SDS011;22066;54.274;18.578;2024-02-26T00:18:31;0.43;;;0.43;;
35993;SDS011;22066;54.274;18.578;2024-02-26T00:20:57;0.23;;;0.23;;
35993;SDS011;22066;54.274;18.578;2024-02-26T00:23:23;0.13;;;0.13;;
35993;SDS011;22066;54.274;18.578;2024-02-26T00:25:49;3.40;;;2.43;;
35993;SDS011;22066;54.274;18.578;2024-02-26T00:28:16;0.00;;;0.00;;
35993;SDS011;22066;54.274;18.578;2024-02-26T00:30:42;0.10;;;0.10;;
35993;SDS011;22066;54.274;18.578;2024-02-26T00:33:08;0.43;;;0.40;;
35993;SDS011;22066;54.274;18.578;2024-02-26T00:35:34;0.43;;;0.40;;
35993;SDS011;22066;54.274;18.578;2024-02-26T00:38:00;0.10;;;0.10;;
35993;SDS011;22066;54.274;18.578;2024-02-26T00:40:28;0.03;;;0.03;;
35993;SDS011;22066;54.274;18.578;2024-02-26T00:42:54;0.10;;;0.10;;
35993;SDS011;22066;54.274;18.578;2024-02-26T00:45:20;1.90;;;1.80;;
35993;SDS011;22066;54.274;18.578;2024-02-26T00:47:46;0.73;;;0.47;;
35993;SDS011;22066;54.274;18.578;2024-02-26T00:50:14;0.10;;;0.10;;
35993;SDS011;22066;54.274;18.578;2024-02-26T00:52:40;0.97;;;0.90;;
35993;SDS011;22066;54.274;18.578;2024-02-26T00:55:06;0.33;;;0.33;;
35993;SDS011;22066;54.274;18.578;2024-02-26T00:57:33;0.37;;;0.33;;
35993;SDS011;22066;54.274;18.578;2024-02-26T00:59:59;1.10;;;0.93;;
35993;SDS011;22066;54.274;18.578;2024-02-26T01:02:25;0.00;;;0.00;;
35993;SDS011;22066;54.274;18.578;2024-02-26T01:04:51;1.40;;;1.30;;
35993;SDS011;22066;54.274;18.578;2024-02-26T01:07:18;0.77;;;0.77;;
35993;SDS011;22066;54.274;18.578;2024-02-26T01:09:45;1.97;;;1.80;;
35993;SDS011;22066;54.274;18.578;2024-02-26T01:12:11;1.70;;;1.60;;
35993;SDS011;22066;54.274;18.578;2024-02-26T01:14:37;0.00;;;0.00;;
35993;SDS011;22066;54.274;18.578;2024-02-26T01:17:03;0.00;;;0.00;;
35993;SDS011;22066;54.274;18.578;2024-02-26T01:19:29;0.10;;;0.10;;
35993;SDS011;22066;54.274;18.578;2024-02-26T01:21:55;0.10;;;0.10;;
35993;SDS011;22066;54.274;18.578;2024-02-26T01:24:21;0.10;;;0.10;;
35993;SDS011;22066;54.274;18.578;2024-02-26T01:26:47;0.40;;;0.40;;
35993;SDS011;22066;54.274;18.578;2024-02-26T01:29:13;1.60;;;0.77;;
35993;SDS011;22066;54.274;18.578;2024-02-26T01:31:39;0.03;;;0.03;;
35993;SDS011;22066;54.274;18.578;2024-02-26T01:34:05;1.10;;;1.10;;
35993;SDS011;22066;54.274;18.578;2024-02-26T01:36:31;0.43;;;0.43;;
35993;SDS011;22066;54.274;18.578;2024-02-26T01:38:59;0.10;;;0.10;;
35993;SDS011;22066;54.274;18.578;2024-02-26T01:41:25;0.50;;;0.50;;
35993;SDS011;22066;54.274;18.578;2024-02-26T01:43:51;0.10;;;0.10;;
35993;SDS011;22066;54.274;18.578;2024-02-26T01:46:17;0.00;;;0.00;;
35993;SDS011;22066;54.274;18.578;2024-02-26T01:48:44;0.67;;;0.67;;
35993;SDS011;22066;54.274;18.578;2024-02-26T01:53:38;0.63;;;0.63;;
35993;SDS011;22066;54.274;18.578;2024-02-26T01:56:04;0.30;;;0.30;;
35993;SDS011;22066;54.274;18.578;2024-02-26T01:58:30;0.10;;;0.10;;
35993;SDS011;22066;54.274;18.578;2024-02-26T02:00:57;0.00;;;0.00;;
35993;SDS011;22066;54.274;18.578;2024-02-26T02:03:23;1.93;;;1.80;;
35993;SDS011;22066;54.274;18.578;2024-02-26T02:05:49;0.10;;;0.10;;
35993;SDS011;22066;54.274;18.578;2024-02-26T02:08:15;0.43;;;0.43;;
35993;SDS011;22066;54.274;18.578;2024-02-26T02:10:41;0.00;;;0.00;;
35993;SDS011;22066;54.274;18.578;2024-02-26T02:13:08;0.00;;;0.00;;
35993;SDS011;22066;54.274;18.578;2024-02-26T02:15:34;0.10;;;0.10;;
35993;SDS011;22066;54.274;18.578;2024-02-26T02:18:00;1.83;;;0.83;;
35993;SDS011;22066;54.274;18.578;2024-02-26T02:20:32;0.63;;;0.60;;
35993;SDS011;22066;54.274;18.578;2024-02-26T02:22:59;0.10;;;0.10;;
35993;SDS011;22066;54.274;18.578;2024-02-26T02:25:25;0.00;;;0.00;;
35993;SDS011;22066;54.274;18.578;2024-02-26T02:27:51;0.00;;;0.00;;
35993;SDS011;22066;54.274;18.578;2024-02-26T02:30:18;0.53;;;0.53;;
35993;SDS011;22066;54.274;18.578;2024-02-26T02:32:45;0.10;;;0.10;;
35993;SDS011;22066;54.274;18.578;2024-02-26T02:35:11;0.10;;;0.10;;
35993;SDS011;22066;54.274;18.578;2024-02-26T02:37:37;0.00;;;0.00;;
35993;SDS011;22066;54.274;18.578;2024-02-26T02:40:03;0.20;;;0.20;;
35993;SDS011;22066;54.274;18.578;2024-02-26T02:42:30;0.13;;;0.13;;
35993;SDS011;22066;54.274;18.578;2024-02-26T02:44:56;1.13;;;0.63;;
35993;SDS011;22066;54.274;18.578;2024-02-26T02:47:22;0.20;;;0.20;;
35993;SDS011;22066;54.274;18.578;2024-02-26T02:49:48;0.10;;;0.10;;
35993;SDS011;22066;54.274;18.578;2024-02-26T02:52:14;0.83;;;0.83;;
35993;SDS011;22066;54.274;18.578;2024-02-26T02:54:40;0.00;;;0.00;;
35993;SDS011;22066;54.274;18.578;2024-02-26T02:57:10;0.13;;;0.13;;
35993;SDS011;22066;54.274;18.578;2024-02-26T02:59:36;0.43;;;0.43;;
35993;SDS011;22066;54.274;18.578;2024-02-26T03:02:03;0.13;;;0.13;;
35993;SDS011;22066;54.274;18.578;2024-02-26T03:04:29;1.37;;;1.27;;
35993;SDS011;22066;54.274;18.578;2024-02-26T03:06:55;0.00;;;0.00;;
35993;SDS011;22066;54.274;18.578;2024-02-26T03:09:22;0.00;;;0.00;;
35993;SDS011;22066;54.274;18.578;2024-02-26T03:11:48;0.63;;;0.60;;
35993;SDS011;22066;54.274;18.578;2024-02-26T03:14:15;0.00;;;0.00;;
35993;SDS011;22066;54.274;18.578;2024-02-26T03:16:41;0.10;;;0.10;;
35993;SDS011;22066;54.274;18.578;2024-02-26T03:19:07;0.20;;;0.20;;
35993;SDS011;22066;54.274;18.578;2024-02-26T03:21:33;0.30;;;0.30;;
35993;SDS011;22066;54.274;18.578;2024-02-26T03:23:59;0.83;;;0.83;;
35993;SDS011;22066;54.274;18.578;2024-02-26T03:26:25;0.00;;;0.00;;
35993;SDS011;22066;54.274;18.578;2024-02-26T03:28:51;0.00;;;0.00;;
35993;SDS011;22066;54.274;18.578;2024-02-26T03:31:17;0.00;;;0.00;;
35993;SDS011;22066;54.274;18.578;2024-02-26T03:33:43;0.10;;;0.10;;
35993;SDS011;22066;54.274;18.578;2024-02-26T03:36:09;0.60;;;0.50;;
35993;SDS011;22066;54.274;18.578;2024-02-26T03:38:36;0.03;;;0.03;;
35993;SDS011;22066;54.274;18.578;2024-02-26T03:41:02;0.00;;;0.00;;
35993;SDS011;22066;54.274;18.578;2024-02-26T03:43:28;0.00;;;0.00;;
35993;SDS011;22066;54.274;18.578;2024-02-26T03:45:55;0.03;;;0.03;;
35993;SDS011;22066;54.274;18.578;2024-02-26T03:48:21;1.83;;;1.33;;
35993;SDS011;22066;54.274;18.578;2024-02-26T03:50:47;0.10;;;0.10;;
35993;SDS011;22066;54.274;18.578;2024-02-26T03:53:13;0.80;;;0.80;;
35993;SDS011;22066;54.274;18.578;2024-02-26T03:55:39;0.00;;;0.00;;
35993;SDS011;22066;54.274;18.578;2024-02-26T03:58:07;0.40;;;0.40;;
35993;SDS011;22066;54.274;18.578;2024-02-26T04:00:33;0.00;;;0.00;;
35993;SDS011;22066;54.274;18.578;2024-02-26T04:02:59;0.53;;;0.53;;
35993;SDS011;22066;54.274;18.578;2024-02-26T04:05:25;3.20;;;1.60;;
35993;SDS011;22066;54.274;18.578;2024-02-26T04:07:51;0.00;;;0.00;;
35993;SDS011;22066;54.274;18.578;2024-02-26T04:10:17;0.27;;;0.27;;
35993;SDS011;22066;54.274;18.578;2024-02-26T04:12:44;0.13;;;0.13;;
35993;SDS011;22066;54.274;18.578;2024-02-26T04:15:10;0.40;;;0.40;;
35993;SDS011;22066;54.274;18.578;2024-02-26T04:17:36;0.00;;;0.00;;
35993;SDS011;22066;54.274;18.578;2024-02-26T04:20:03;0.10;;;0.10;;
35993;SDS011;22066;54.274;18.578;2024-02-26T04:22:30;0.40;;;0.40;;
35993;SDS011;22066;54.274;18.578;2024-02-26T04:24:57;0.40;;;0.40;;
35993;SDS011;22066;54.274;18.578;2024-02-26T04:27:23;1.10;;;0.77;;
35993;SDS011;22066;54.274;18.578;2024-02-26T04:29:49;0.10;;;0.10;;
35993;SDS011;22066;54.274;18.578;2024-02-26T04:32:15;0.00;;;0.00;;
35993;SDS011;22066;54.274;18.578;2024-02-26T04:34:41;0.10;;;0.10;;
35993;SDS011;22066;54.274;18.578;2024-02-26T04:37:08;0.10;;;0.10;;
35993;SDS011;22066;54.274;18.578;2024-02-26T04:39:34;2.43;;;2.23;;
35993;SDS011;22066;54.274;18.578;2024-02-26T04:42:00;0.23;;;0.23;;
35993;SDS011;22066;54.274;18.578;2024-02-26T04:46:55;0.00;;;0.00;;
35993;SDS011;22066;54.274;18.578;2024-02-26T04:49:21;0.40;;;0.40;;
35993;SDS011;22066;54.274;18.578;2024-02-26T04:51:47;0.37;;;0.37;;
35993;SDS011;22066;54.274;18.578;2024-02-26T04:54:13;0.10;;;0.10;;
35993;SDS011;22066;54.274;18.578;2024-02-26T04:56:39;0.30;;;0.30;;
35993;SDS011;22066;54.274;18.578;2024-02-26T04:59:05;0.20;;;0.20;;
35993;SDS011;22066;54.274;18.578;2024-02-26T05:01:31;0.47;;;0.47;;
35993;SDS011;22066;54.274;18.578;2024-02-26T05:03:57;0.40;;;0.40;;
35993;SDS011;22066;54.274;18.578;2024-02-26T05:06:23;0.30;;;0.30;;
35993;SDS011;22066;54.274;18.578;2024-02-26T05:08:50;0.13;;;0.13;;
35993;SDS011;22066;54.274;18.578;2024-02-26T05:11:16;0.00;;;0.00;;
35993;SDS011;22066;54.274;18.578;2024-02-26T05:13:43;0.10;;;0.10;;
35993;SDS011;22066;54.274;18.578;2024-02-26T05:16:10;0.10;;;0.10;;
35993;SDS011;22066;54.274;18.578;2024-02-26T05:18:36;0.17;;;0.17;;
35993;SDS011;22066;54.274;18.578;2024-02-26T05:21:02;0.93;;;0.43;;
35993;SDS011;22066;54.274;18.578;2024-02-26T05:23:28;0.30;;;0.30;;
35993;SDS011;22066;54.274;18.578;2024-02-26T05:25:55;1.20;;;1.20;;
35993;SDS011;22066;54.274;18.578;2024-02-26T05:28:21;0.30;;;0.30;;
35993;SDS011;22066;54.274;18.578;2024-02-26T05:30:47;1.80;;;1.40;;
35993;SDS011;22066;54.274;18.578;2024-02-26T05:33:13;0.40;;;0.40;;
35993;SDS011;22066;54.274;18.578;2024-02-26T05:35:39;0.53;;;0.53;;
35993;SDS011;22066;54.274;18.578;2024-02-26T05:38:05;0.13;;;0.13;;
35993;SDS011;22066;54.274;18.578;2024-02-26T05:40:31;0.20;;;0.20;;
35993;SDS011;22066;54.274;18.578;2024-02-26T05:42:57;0.10;;;0.10;;
35993;SDS011;22066;54.274;18.578;2024-02-26T05:45:24;1.13;;;0.73;;
35993;SDS011;22066;54.274;18.578;2024-02-26T05:47:50;0.67;;;0.67;;
35993;SDS011;22066;54.274;18.578;2024-02-26T05:50:16;0.00;;;0.00;;
35993;SDS011;22066;54.274;18.578;2024-02-26T05:52:42;0.00;;;0.00;;
35993;SDS011;22066;54.274;18.578;2024-02-26T05:55:08;2.00;;;1.90;;
35993;SDS011;22066;54.274;18.578;2024-02-26T05:57:34;0.93;;;0.80;;
35993;SDS011;22066;54.274;18.578;2024-02-26T06:00:00;0.10;;;0.10;;
35993;SDS011;22066;54.274;18.578;2024-02-26T06:02:31;0.00;;;0.00;;
35993;SDS011;22066;54.274;18.578;2024-02-26T06:04:57;0.30;;;0.30;;
35993;SDS011;22066;54.274;18.578;2024-02-26T06:07:24;0.00;;;0.00;;
35993;SDS011;22066;54.274;18.578;2024-02-26T06:09:51;0.03;;;0.03;;
35993;SDS011;22066;54.274;18.578;2024-02-26T06:12:17;0.10;;;0.10;;
35993;SDS011;22066;54.274;18.578;2024-02-26T06:14:43;0.00;;;0.00;;
35993;SDS011;22066;54.274;18.578;2024-02-26T06:17:09;1.70;;;1.50;;
35993;SDS011;22066;54.274;18.578;2024-02-26T06:19:35;0.20;;;0.20;;
35993;SDS011;22066;54.274;18.578;2024-02-26T06:22:01;0.20;;;0.20;;
35993;SDS011;22066;54.274;18.578;2024-02-26T06:24:27;0.00;;;0.00;;
35993;SDS011;22066;54.274;18.578;2024-02-26T06:26:53;0.10;;;0.10;;
35993;SDS011;22066;54.274;18.578;2024-02-26T06:29:19;0.00;;;0.00;;
35993;SDS011;22066;54.274;18.578;2024-02-26T06:31:45;0.57;;;0.57;;
35993;SDS011;22066;54.274;18.578;2024-02-26T06:34:13;0.20;;;0.20;;
35993;SDS011;22066;54.274;18.578;2024-02-26T06:36:39;1.53;;;1.47;;
35993;SDS011;22066;54.274;18.578;2024-02-26T06:39:05;0.97;;;0.97;;
35993;SDS011;22066;54.274;18.578;2024-02-26T06:41:31;0.80;;;0.80;;
35993;SDS011;22066;54.274;18.578;2024-02-26T06:43:57;0.50;;;0.50;;
35993;SDS011;22066;54.274;18.578;2024-02-26T06:46:23;1.13;;;1.03;;
35993;SDS011;22066;54.274;18.578;2024-02-26T06:48:51;0.83;;;0.83;;
35993;SDS011;22066;54.274;18.578;2024-02-26T06:51:17;2.30;;;2.10;;
35993;SDS011;22066;54.274;18.578;2024-02-26T06:53:43;0.47;;;0.47;;
35993;SDS011;22066;54.274;18.578;2024-02-26T06:56:09;0.97;;;0.93;;
35993;SDS011;22066;54.274;18.578;2024-02-26T06:58:35;0.57;;;0.57;;
35993;SDS011;22066;54.274;18.578;2024-02-26T07:01:01;0.17;;;0.17;;
35993;SDS011;22066;54.274;18.578;2024-02-26T07:03:27;0.20;;;0.20;;
35993;SDS011;22066;54.274;18.578;2024-02-26T07:05:54;1.73;;;1.60;;
35993;SDS011;22066;54.274;18.578;2024-02-26T07:08:20;0.83;;;0.83;;
35993;SDS011;22066;54.274;18.578;2024-02-26T07:10:46;0.27;;;0.27;;
35993;SDS011;22066;54.274;18.578;2024-02-26T07:13:13;0.47;;;0.47;;
35993;SDS011;22066;54.274;18.578;2024-02-26T07:15:39;0.20;;;0.20;;
35993;SDS011;22066;54.274;18.578;2024-02-26T07:18:05;2.40;;;2.20;;
35993;SDS011;22066;54.274;18.578;2024-02-26T07:20:31;0.23;;;0.20;;
35993;SDS011;22066;54.274;18.578;2024-02-26T07:22:58;1.10;;;1.00;;
35993;SDS011;22066;54.274;18.578;2024-02-26T07:25:24;2.63;;;2.42;;
35993;SDS011;22066;54.274;18.578;2024-02-26T07:27:50;1.10;;;1.02;;
35993;SDS011;22066;54.274;18.578;2024-02-26T07:30:16;1.17;;;0.88;;
35993;SDS011;22066;54.274;18.578;2024-02-26T07:32:42;1.27;;;1.17;;
35993;SDS011;22066;54.274;18.578;2024-02-26T07:35:09;1.65;;;1.35;;
35993;SDS011;22066;54.274;18.578;2024-02-26T07:37:35;0.85;;;0.77;;
35993;SDS011;22066;54.274;18.578;2024-02-26T07:40:01;1.33;;;1.23;;
35993;SDS011;22066;54.274;18.578;2024-02-26T07:42:28;2.75;;;0.65;;
35993;SDS011;22066;54.274;18.578;2024-02-26T07:44:54;0.20;;;0.20;;
35993;SDS011;22066;54.274;18.578;2024-02-26T07:47:21;2.72;;;2.45;;
35993;SDS011;22066;54.274;18.578;2024-02-26T07:49:47;0.60;;;0.60;;
35993;SDS011;22066;54.274;18.578;2024-02-26T07:52:13;0.60;;;0.60;;
35993;SDS011;22066;54.274;18.578;2024-02-26T07:54:39;2.83;;;2.60;;
35993;SDS011;22066;54.274;18.578;2024-02-26T07:57:05;2.67;;;1.55;;
35993;SDS011;22066;54.274;18.578;2024-02-26T07:59:32;1.17;;;0.98;;
35993;SDS011;22066;54.274;18.578;2024-02-26T08:01:58;1.92;;;1.73;;
35993;SDS011;22066;54.274;18.578;2024-02-26T08:04:25;0.57;;;0.57;;
35993;SDS011;22066;54.274;18.578;2024-02-26T08:06:51;2.95;;;2.47;;
35993;SDS011;22066;54.274;18.578;2024-02-26T08:09:17;1.23;;;1.13;;
35993;SDS011;22066;54.274;18.578;2024-02-26T08:11:44;1.20;;;1.10;;
35993;SDS011;22066;54.274;18.578;2024-02-26T08:14:10;2.60;;;2.40;;
35993;SDS011;22066;54.274;18.578;2024-02-26T08:16:36;1.70;;;1.58;;
35993;SDS011;22066;54.274;18.578;2024-02-26T08:19:02;0.40;;;0.40;;
35993;SDS011;22066;54.274;18.578;2024-02-26T08:21:28;1.30;;;1.15;;
35993;SDS011;22066;54.274;18.578;2024-02-26T08:23:54;4.40;;;3.47;;
35993;SDS011;22066;54.274;18.578;2024-02-26T08:26:20;1.05;;;1.00;;
35993;SDS011;22066;54.274;18.578;2024-02-26T08:28:47;2.88;;;2.38;;
35993;SDS011;22066;54.274;18.578;2024-02-26T08:31:14;3.05;;;2.28;;
35993;SDS011;22066;54.274;18.578;2024-02-26T08:33:40;1.55;;;1.48;;
35993;SDS011;22066;54.274;18.578;2024-02-26T08:36:06;2.47;;;2.25;;
35993;SDS011;22066;54.274;18.578;2024-02-26T08:38:32;2.53;;;2.15;;
35993;SDS011;22066;54.274;18.578;2024-02-26T08:41:01;3.35;;;1.83;;
35993;SDS011;22066;54.274;18.578;2024-02-26T08:43:28;3.65;;;2.85;;
35993;SDS011;22066;54.274;18.578;2024-02-26T08:45:54;3.35;;;2.30;;
35993;SDS011;22066;54.274;18.578;2024-02-26T08:48:21;1.52;;;1.40;;
35993;SDS011;22066;54.274;18.578;2024-02-26T08:50:47;2.33;;;2.13;;
35993;SDS011;22066;54.274;18.578;2024-02-26T08:53:13;2.42;;;2.22;;
35993;SDS011;22066;54.274;18.578;2024-02-26T08:55:39;2.45;;;2.25;;
35993;SDS011;22066;54.274;18.578;2024-02-26T08:58:05;3.95;;;3.30;;
35993;SDS011;22066;54.274;18.578;2024-02-26T09:00:31;2.17;;;1.63;;
35993;SDS011;22066;54.274;18.578;2024-02-26T09:02:57;2.28;;;2.05;;
35993;SDS011;22066;54.274;18.578;2024-02-26T09:05:23;4.13;;;3.03;;
35993;SDS011;22066;54.274;18.578;2024-02-26T09:07:49;2.53;;;1.42;;
35993;SDS011;22066;54.274;18.578;2024-02-26T09:10:17;3.03;;;2.65;;
35993;SDS011;22066;54.274;18.578;2024-02-26T09:12:43;1.48;;;1.23;;
35993;SDS011;22066;54.274;18.578;2024-02-26T09:15:09;2.58;;;1.15;;
35993;SDS011;22066;54.274;18.578;2024-02-26T09:17:35;1.25;;;1.15;;
35993;SDS011;22066;54.274;18.578;2024-02-26T09:20:02;1.08;;;0.95;;
35993;SDS011;22066;54.274;18.578;2024-02-26T09:22:28;2.75;;;2.25;;
35993;SDS011;22066;54.274;18.578;2024-02-26T09:24:54;1.85;;;1.50;;
35993;SDS011;22066;54.274;18.578;2024-02-26T09:27:20;2.30;;;2.03;;
35993;SDS011;22066;54.274;18.578;2024-02-26T09:29:48;1.10;;;0.95;;
35993;SDS011;22066;54.274;18.578;2024-02-26T09:32:14;2.85;;;2.63;;
35993;SDS011;22066;54.274;18.578;2024-02-26T09:34:40;1.02;;;0.88;;
35993;SDS011;22066;54.274;18.578;2024-02-26T09:37:07;4.32;;;2.65;;
35993;SDS011;22066;54.274;18.578;2024-02-26T09:39:33;2.60;;;1.70;;
35993;SDS011;22066;54.274;18.578;2024-02-26T09:42:00;2.03;;;1.50;;
35993;SDS011;22066;54.274;18.578;2024-02-26T09:44:28;5.10;;;3.00;;
35993;SDS011;22066;54.274;18.578;2024-02-26T09:46:55;2.90;;;2.45;;
35993;SDS011;22066;54.274;18.578;2024-02-26T09:49:22;4.95;;;3.53;;
35993;SDS011;22066;54.274;18.578;2024-02-26T09:51:49;6.18;;;3.45;;
35993;SDS011;22066;54.274;18.578;2024-02-26T09:54:16;5.47;;;2.10;;
35993;SDS011;22066;54.274;18.578;2024-02-26T09:56:42;2.72;;;1.20;;
35993;SDS011;22066;54.274;18.578;2024-02-26T09:59:13;2.30;;;2.03;;
35993;SDS011;22066;54.274;18.578;2024-02-26T10:01:40;1.85;;;1.48;;
35993;SDS011;22066;54.274;18.578;2024-02-26T10:04:08;2.73;;;2.43;;
35993;SDS011;22066;54.274;18.578;2024-02-26T10:06:35;1.42;;;1.33;;
35993;SDS011;22066;54.274;18.578;2024-02-26T10:09:02;3.00;;;2.03;;
35993;SDS011;22066;54.274;18.578;2024-02-26T10:11:32;4.05;;;2.42;;
35993;SDS011;22066;54.274;18.578;2024-02-26T10:13:58;2.75;;;1.92;;
35993;SDS011;22066;54.274;18.578;2024-02-26T10:16:25;8.45;;;4.20;;
35993;SDS011;22066;54.274;18.578;2024-02-26T10:18:52;2.08;;;1.52;;
35993;SDS011;22066;54.274;18.578;2024-02-26T10:21:22;3.05;;;2.60;;
35993;SDS011;22066;54.274;18.578;2024-02-26T10:23:48;2.65;;;2.30;;
35993;SDS011;22066;54.274;18.578;2024-02-26T10:26:15;3.97;;;3.13;;
35993;SDS011;22066;54.274;18.578;2024-02-26T10:28:42;4.63;;;3.40;;
35993;SDS011;22066;54.274;18.578;2024-02-26T10:31:09;2.87;;;2.63;;
35993;SDS011;22066;54.274;18.578;2024-02-26T10:33:38;3.10;;;2.13;;
35993;SDS011;22066;54.274;18.578;2024-02-26T10:36:05;2.90;;;2.45;;
35993;SDS011;22066;54.274;18.578;2024-02-26T10:38:32;2.25;;;1.45;;
35993;SDS011;22066;54.274;18.578;2024-02-26T10:40:59;2.53;;;1.80;;
35993;SDS011;22066;54.274;18.578;2024-02-26T10:43:25;4.10;;;2.17;;
35993;SDS011;22066;54.274;18.578;2024-02-26T10:45:51;3.53;;;3.05;;
35993;SDS011;22066;54.274;18.578;2024-02-26T10:48:18;3.83;;;2.50;;
35993;SDS011;22066;54.274;18.578;2024-02-26T10:50:44;2.58;;;2.30;;
35993;SDS011;22066;54.274;18.578;2024-02-26T10:53:13;3.40;;;2.35;;
35993;SDS011;22066;54.274;18.578;2024-02-26T10:55:41;4.25;;;2.70;;
35993;SDS011;22066;54.274;18.578;2024-02-26T10:58:08;2.85;;;2.22;;
35993;SDS011;22066;54.274;18.578;2024-02-26T11:00:36;4.35;;;2.83;;
35993;SDS011;22066;54.274;18.578;2024-02-26T11:03:04;3.88;;;2.67;;
35993;SDS011;22066;54.274;18.578;2024-02-26T11:05:31;3.63;;;2.60;;
35993;SDS011;22066;54.274;18.578;2024-02-26T11:07:58;7.25;;;2.40;;
35993;SDS011;22066;54.274;18.578;2024-02-26T11:10:25;5.68;;;3.88;;
35993;SDS011;22066;54.274;18.578;2024-02-26T11:12:52;2.40;;;2.08;;
35993;SDS011;22066;54.274;18.578;2024-02-26T11:15:19;2.75;;;2.30;;
35993;SDS011;22066;54.274;18.578;2024-02-26T11:17:46;4.60;;;3.60;;
35993;SDS011;22066;54.274;18.578;2024-02-26T11:20:12;2.88;;;1.20;;
35993;SDS011;22066;54.274;18.578;2024-02-26T11:22:40;1.77;;;1.35;;
35993;SDS011;22066;54.274;18.578;2024-02-26T11:25:06;3.95;;;2.15;;
35993;SDS011;22066;54.274;18.578;2024-02-26T11:27:35;2.80;;;2.00;;
35993;SDS011;22066;54.274;18.578;2024-02-26T11:30:03;1.27;;;1.17;;
35993;SDS011;22066;54.274;18.578;2024-02-26T11:32:30;3.63;;;2.23;;
35993;SDS011;22066;54.274;18.578;2024-02-26T11:34:57;4.90;;;2.75;;
35993;SDS011;22066;54.274;18.578;2024-02-26T11:37:23;2.90;;;1.92;;
35993;SDS011;22066;54.274;18.578;2024-02-26T11:39:51;3.53;;;2.10;;
35993;SDS011;22066;54.274;18.578;2024-02-26T11:42:17;2.13;;;1.88;;
35993;SDS011;22066;54.274;18.578;2024-02-26T11:44:48;6.38;;;3.17;;
35993;SDS011;22066;54.274;18.578;2024-02-26T11:47:18;3.08;;;2.40;;
35993;SDS011;22066;54.274;18.578;2024-02-26T11:49:45;5.30;;;3.28;;
35993;SDS011;22066;54.274;18.578;2024-02-26T11:52:12;3.42;;;2.40;;
35993;SDS011;22066;54.274;18.578;2024-02-26T11:57:20;7.65;;;3.55;;
35993;SDS011;22066;54.274;18.578;2024-02-26T11:59:50;4.95;;;2.33;;
35993;SDS011;22066;54.274;18.578;2024-02-26T12:05:01;2.35;;;1.20;;
35993;SDS011;22066;54.274;18.578;2024-02-26T12:07:27;3.50;;;2.53;;
35993;SDS011;22066;54.274;18.578;2024-02-26T12:09:56;4.22;;;2.70;;
35993;SDS011;22066;54.274;18.578;2024-02-26T12:12:38;2.40;;;1.83;;
35993;SDS011;22066;54.274;18.578;2024-02-26T12:15:05;2.92;;;1.65;;
35993;SDS011;22066;54.274;18.578;2024-02-26T12:17:31;4.85;;;2.95;;
35993;SDS011;22066;54.274;18.578;2024-02-26T12:20:08;3.70;;;1.65;;
35993;SDS011;22066;54.274;18.578;2024-02-26T12:22:34;4.35;;;2.58;;
35993;SDS011;22066;54.274;18.578;2024-02-26T12:25:02;2.10;;;1.90;;
35993;SDS011;22066;54.274;18.578;2024-02-26T12:27:28;3.83;;;2.15;;
35993;SDS011;22066;54.274;18.578;2024-02-26T12:29:54;5.68;;;2.85;;
35993;SDS011;22066;54.274;18.578;2024-02-26T12:32:21;2.38;;;1.88;;
35993;SDS011;22066;54.274;18.578;2024-02-26T12:34:48;2.07;;;1.37;;
35993;SDS011;22066;54.274;18.578;2024-02-26T12:37:14;2.20;;;1.80;;
35993;SDS011;22066;54.274;18.578;2024-02-26T12:39:40;3.60;;;2.42;;
35993;SDS011;22066;54.274;18.578;2024-02-26T12:42:07;3.58;;;2.60;;
35993;SDS011;22066;54.274;18.578;2024-02-26T12:44:33;4.10;;;2.80;;
35993;SDS011;22066;54.274;18.578;2024-02-26T12:47:03;7.20;;;2.38;;
35993;SDS011;22066;54.274;18.578;2024-02-26T12:49:29;5.80;;;2.15;;
35993;SDS011;22066;54.274;18.578;2024-02-26T12:51:55;3.13;;;2.03;;
35993;SDS011;22066;54.274;18.578;2024-02-26T12:54:29;3.70;;;1.85;;
35993;SDS011;22066;54.274;18.578;2024-02-26T12:56:56;3.17;;;1.60;;
35993;SDS011;22066;54.274;18.578;2024-02-26T12:59:22;3.13;;;1.88;;
35993;SDS011;22066;54.274;18.578;2024-02-26T13:01:49;9.23;;;4.00;;
35993;SDS011;22066;54.274;18.578;2024-02-26T13:04:15;2.72;;;2.47;;
35993;SDS011;22066;54.274;18.578;2024-02-26T13:06:42;5.45;;;3.17;;
35993;SDS011;22066;54.274;18.578;2024-02-26T13:09:12;8.45;;;3.67;;
35993;SDS011;22066;54.274;18.578;2024-02-26T13:11:39;5.07;;;3.00;;
35993;SDS011;22066;54.274;18.578;2024-02-26T13:14:06;4.20;;;3.72;;
35993;SDS011;22066;54.274;18.578;2024-02-26T13:16:32;2.03;;;1.63;;
35993;SDS011;22066;54.274;18.578;2024-02-26T13:19:19;8.15;;;2.17;;
35993;SDS011;22066;54.274;18.578;2024-02-26T13:21:44;2.15;;;1.85;;
35993;SDS011;22066;54.274;18.578;2024-02-26T13:24:12;3.47;;;2.67;;
35993;SDS011;22066;54.274;18.578;2024-02-26T13:29:04;3.78;;;2.10;;
35993;SDS011;22066;54.274;18.578;2024-02-26T13:31:31;1.63;;;1.30;;
35993;SDS011;22066;54.274;18.578;2024-02-26T13:33:57;5.13;;;3.17;;
35993;SDS011;22066;54.274;18.578;2024-02-26T13:36:24;2.42;;;2.25;;
35993;SDS011;22066;54.274;18.578;2024-02-26T13:38:54;3.40;;;2.77;;
35993;SDS011;22066;54.274;18.578;2024-02-26T13:41:21;3.50;;;2.65;;
35993;SDS011;22066;54.274;18.578;2024-02-26T13:43:47;4.47;;;3.25;;
35993;SDS011;22066;54.274;18.578;2024-02-26T13:46:14;2.80;;;2.25;;
35993;SDS011;22066;54.274;18.578;2024-02-26T13:48:43;2.92;;;2.38;;
35993;SDS011;22066;54.274;18.578;2024-02-26T13:51:09;6.43;;;3.63;;
35993;SDS011;22066;54.274;18.578;2024-02-26T13:53:36;2.72;;;2.05;;
35993;SDS011;22066;54.274;18.578;2024-02-26T13:56:02;1.02;;;0.90;;
35993;SDS011;22066;54.274;18.578;2024-02-26T13:58:30;4.57;;;2.35;;
35993;SDS011;22066;54.274;18.578;2024-02-26T14:00:56;2.67;;;2.45;;
35993;SDS011;22066;54.274;18.578;2024-02-26T14:03:24;2.95;;;2.42;;
35993;SDS011;22066;54.274;18.578;2024-02-26T14:05:51;4.32;;;2.28;;
35993;SDS011;22066;54.274;18.578;2024-02-26T14:08:17;5.05;;;3.33;;
35993;SDS011;22066;54.274;18.578;2024-02-26T14:10:43;3.67;;;1.85;;
35993;SDS011;22066;54.274;18.578;2024-02-26T14:13:09;2.05;;;1.85;;
35993;SDS011;22066;54.274;18.578;2024-02-26T14:15:35;1.65;;;1.55;;
35993;SDS011;22066;54.274;18.578;2024-02-26T14:18:03;4.57;;;2.20;;
35993;SDS011;22066;54.274;18.578;2024-02-26T14:20:29;3.70;;;3.40;;
35993;SDS011;22066;54.274;18.578;2024-02-26T14:22:55;1.50;;;1.40;;
35993;SDS011;22066;54.274;18.578;2024-02-26T14:25:21;1.35;;;1.25;;
35993;SDS011;22066;54.274;18.578;2024-02-26T14:27:48;2.33;;;1.85;;
35993;SDS011;22066;54.274;18.578;2024-02-26T14:30:14;5.57;;;2.58;;
35993;SDS011;22066;54.274;18.578;2024-02-26T14:32:40;3.83;;;2.50;;
35993;SDS011;22066;54.274;18.578;2024-02-26T14:35:06;3.28;;;2.50;;
35993;SDS011;22066;54.274;18.578;2024-02-26T14:37:34;3.67;;;2.63;;
35993;SDS011;22066;54.274;18.578;2024-02-26T14:40:00;2.03;;;1.88;;
35993;SDS011;22066;54.274;18.578;2024-02-26T14:42:27;3.65;;;3.35;;